createdAt,value
2023-01-30T06:12:49.988Z,7.50
2023-01-30T06:17:51.853Z,7.50
2023-01-30T06:22:53.713Z,7.50
2023-01-30T06:27:56.022Z,7.50
2023-01-30T06:32:57.847Z,7.50
2023-01-30T06:38:00.605Z,7.40
2023-01-30T06:43:02.437Z,7.40
2023-01-30T06:48:04.725Z,7.30
2023-01-30T06:53:07.662Z,7.20
2023-01-30T06:58:13.992Z,7.10
2023-01-30T07:03:17.439Z,7.00
2023-01-30T07:08:19.415Z,6.90
2023-01-30T07:13:21.292Z,6.80
2023-01-30T07:18:23.121Z,6.80
2023-01-30T07:23:25.010Z,6.70
2023-01-30T07:28:26.927Z,6.70
2023-01-30T07:33:29.042Z,6.70
2023-01-30T07:38:30.849Z,6.60
2023-01-30T07:43:32.696Z,6.50
2023-01-30T07:48:34.539Z,6.50
2023-01-30T07:53:36.338Z,6.40
2023-01-30T07:58:38.179Z,6.40
2023-01-30T08:03:40.141Z,6.30
2023-01-30T08:08:42.454Z,6.30
2023-01-30T08:13:44.582Z,6.30
2023-01-30T08:18:46.545Z,6.20
2023-01-30T08:23:48.570Z,6.30
2023-01-30T08:28:50.520Z,6.30
2023-01-30T08:33:52.671Z,6.30
2023-01-30T08:38:54.720Z,6.30
2023-01-30T08:43:56.620Z,6.30
2023-01-30T08:48:58.515Z,6.40
2023-01-30T08:54:00.477Z,6.40
2023-01-30T08:59:02.456Z,6.40
2023-01-30T09:04:04.709Z,6.50
2023-01-30T09:09:06.588Z,6.60
2023-01-30T09:14:08.651Z,6.60
2023-01-30T09:19:10.516Z,6.70
2023-01-30T09:24:12.429Z,6.80
2023-01-30T09:29:15.241Z,6.80
2023-01-30T09:34:17.173Z,6.90
2023-01-30T09:39:19.032Z,6.90
2023-01-30T09:44:57.999Z,7.00
2023-01-30T09:50:03.097Z,7.10
2023-01-30T09:55:21.281Z,7.20
2023-01-30T10:00:29.268Z,7.20
2023-01-30T10:05:37.027Z,7.30
2023-01-30T10:11:36.134Z,7.40
2023-01-30T10:16:44.969Z,7.50
2023-01-30T10:21:52.263Z,7.60
2023-01-30T10:26:54.899Z,7.70
2023-01-30T10:32:00.094Z,7.70
2023-01-30T10:37:13.514Z,7.80
2023-01-30T10:42:22.482Z,7.80
2023-01-30T10:47:46.676Z,7.80
2023-01-30T10:52:56.342Z,7.80
2023-01-30T10:58:23.430Z,7.80
2023-01-30T11:03:48.719Z,7.80
2023-01-30T11:08:54.836Z,7.80
2023-01-30T11:14:06.763Z,7.80
2023-01-30T11:19:24.692Z,7.80
2023-01-30T11:24:32.424Z,7.90
2023-01-30T11:29:35.432Z,7.90
2023-01-30T11:34:37.451Z,7.90
2023-01-30T11:39:48.593Z,7.90
2023-01-30T11:45:10.844Z,7.90
2023-01-30T11:50:28.595Z,7.90
2023-01-30T11:55:36.387Z,8.00
2023-01-30T12:00:40.593Z,8.00
2023-01-30T12:05:45.193Z,8.00
2023-01-30T12:10:55.142Z,8.00
2023-01-30T12:16:39.089Z,8.10
2023-01-30T12:21:46.681Z,8.00
2023-01-30T12:27:00.772Z,8.10
2023-01-30T12:37:31.616Z,8.10
2023-01-30T12:42:51.866Z,8.20
2023-01-30T12:48:27.511Z,8.20
2023-01-30T12:53:57.461Z,8.30
2023-01-30T12:59:22.399Z,8.20
2023-01-30T13:05:04.279Z,8.20
2023-01-30T13:10:24.956Z,8.30
2023-01-30T13:15:43.110Z,8.30
2023-01-30T13:20:50.689Z,8.30
2023-01-30T13:26:07.032Z,8.30
2023-01-30T13:31:12.873Z,8.20
2023-01-30T13:36:24.736Z,8.30
2023-01-30T13:41:30.429Z,8.40
2023-01-30T13:46:33.236Z,8.40
2023-01-30T13:52:25.777Z,8.40
2023-01-30T13:57:39.476Z,8.50
2023-01-30T14:03:04.044Z,8.50
2023-01-30T14:08:12.220Z,8.50
2023-01-30T14:13:15.251Z,8.40
2023-01-30T14:18:23.967Z,8.40
2023-01-30T14:23:33.558Z,8.40
2023-01-30T14:28:45.560Z,8.30
2023-01-30T14:33:51.331Z,8.30
2023-01-30T14:38:57.898Z,8.20
2023-01-30T14:43:59.871Z,8.20
2023-01-30T14:49:25.034Z,8.20
2023-01-30T14:54:41.092Z,8.10
2023-01-30T15:00:12.117Z,8.10
2023-01-30T15:05:25.740Z,8.10
2023-01-30T15:11:01.397Z,8.10
2023-01-30T15:16:44.920Z,8.10
2023-01-30T15:21:58.558Z,8.00
2023-01-30T15:27:19.295Z,8.00
2023-01-30T15:32:23.162Z,8.00
2023-01-30T15:37:37.176Z,7.90
2023-01-30T15:42:39.174Z,7.90
2023-01-30T15:47:59.396Z,7.90
2023-01-30T15:53:01.411Z,7.90
2023-01-30T15:58:05.657Z,7.90
2023-01-30T16:03:14.039Z,7.90
2023-01-30T16:08:27.271Z,7.90
2023-01-30T16:13:30.306Z,7.90
2023-01-30T16:19:09.088Z,7.90
2023-01-30T16:24:17.051Z,7.80
